Latest Weather Observations for Casino

IDN60801

Issued at 2:33 pm EDT Sunday 1 February 2015 (issued every 30 minutes, with the page automatically refreshed every 10 minutes)

About weather observations | Map of weather stations | Latest weather observations for NSW | Other Formats
Station Details ID: 058208 Name: CASINO AIRPORT AWS Lat: -28.88 Lon: 153.06 Height: 20.9 m
Data from the previous 72 hours. | See also: Recent months at Casino
Date/Time
EDT
Temp
°C
App
Temp
°C
Dew
Point
Rel
Hum
%
Delta-T
°C
Wind Press
QNH
hPa
Press
MSL
hPa
Rain
since 9 am
mm
Dir
 
Spd
km/h
Gust
km/h
Spd
kts
Gust
kts
01/02:30pm 31.1 30.4 14.3 36 10.2 SW 11 17 6 9 1005.2 1005.1 0.0
01/02:00pm 30.8 31.0 16.8 43 8.8 SSW 11 17 6 9 1005.6 1005.5 0.0
01/01:30pm 30.7 31.4 17.0 43 8.7 SW 9 19 5 10 1006.1 1006.0 0.0
01/01:00pm 30.2 31.3 18.0 48 7.8 SSW 9 15 5 8 1006.5 1006.4 0.0
01/12:30pm 30.1 31.8 18.5 49 7.5 S 7 15 4 8 1007.0 1006.9 0.0
01/12:00pm 29.4 31.4 19.1 54 6.7 SSE 7 11 4 6 1007.5 1007.4 0.0
01/11:30am 29.2 31.3 20.1 58 6.0 S 9 13 5 7 1007.6 1007.5 0.0
01/11:00am 27.8 29.5 19.3 60 5.5 SW 9 19 5 10 1007.7 1007.6 0.0
01/10:30am 27.0 28.6 18.3 59 5.5 WSW 7 13 4 7 1008.0 1007.9 0.0
01/10:00am 26.5 28.1 19.1 64 4.8 SW 9 13 5 7 1008.0 1007.9 0.0
01/09:30am 25.6 27.1 19.7 70 3.8 WNW 11 15 6 8 1008.0 1007.9 0.0
01/09:00am 24.8 26.8 19.2 71 3.6 W 7 13 4 7 1007.9 1007.8 0.0
01/08:30am 23.6 25.4 19.5 78 2.6 NW 9 13 5 7 1007.9 1007.8 0.0
01/08:00am 22.1 23.6 18.9 82 2.0 NW 9 11 5 6 1007.8 1007.7 0.0
01/07:30am 21.5 22.8 18.5 83 1.9 NW 9 11 5 6 1007.4 1007.3 0.0
01/07:00am 21.1 22.4 18.5 85 1.6 WNW 9 13 5 7 1006.9 1006.8 0.0
01/06:30am 20.4 21.6 18.3 88 1.3 NW 9 11 5 6 1006.6 1006.5 0.0
01/06:00am 20.3 21.8 18.1 87 1.4 WNW 7 9 4 5 1006.3 1006.2 0.0
01/05:30am 20.4 22.0 18.2 87 1.4 W 7 9 4 5 1006.1 1006.0 0.0
01/05:00am 20.4 21.6 18.2 87 1.4 WNW 9 11 5 6 1005.9 1005.8 0.0
01/04:30am 20.3 21.9 18.2 88 1.3 NW 7 9 4 5 1005.9 1005.8 0.0
01/04:00am 19.4 20.6 17.4 88 1.2 NW 7 9 4 5 1005.9 1005.8 0.0
01/03:30am 19.7 22.2 17.3 86 1.5 CALM 0 0 0 0 1005.9 1005.8 0.0
01/03:00am 20.5 22.0 17.5 83 1.8 NW 6 7 3 4 1006.0 1005.9 0.0
01/02:30am 21.0 22.0 17.8 82 2.0 WNW 9 11 5 6 1006.0 1005.9 0.0
01/02:00am 21.9 23.1 18.3 80 2.3 W 9 11 5 6 1006.4 1006.3 0.0
01/01:30am 22.2 23.5 18.4 79 2.4 WNW 9 13 5 7 1006.5 1006.4 0.0
01/01:00am 21.2 22.7 18.0 82 2.0 WNW 7 9 4 5 1006.7 1006.6 0.0
01/12:30am 21.5 22.5 17.7 79 2.3 WNW 9 11 5 6 1007.1 1007.0 0.0
01/12:00am 21.9 22.9 17.7 77 2.6 W 9 13 5 7 1007.4 1007.3 0.0
 
Date/Time
EDT
Temp
°C
App
Temp
°C
Dew
Point
Rel
Hum
%
Delta-T
°C
Wind Press
QNH
hPa
Press
MSL
hPa
Rain
since 9 am
mm
Dir
 
Spd
km/h
Gust
km/h
Spd
kts
Gust
kts
31/11:30pm 21.9 22.9 17.7 77 2.6 W 9 11 5 6 1007.4 1007.3 0.0
31/11:00pm 22.0 23.5 18.0 78 2.5 WSW 7 11 4 6 1007.4 1007.3 0.0
31/10:30pm 22.1 23.8 18.5 80 2.3 WSW 7 9 4 5 1007.1 1007.0 0.0
31/10:00pm 22.4 24.2 18.8 80 2.3 WSW 7 11 4 6 1006.7 1006.6 0.0
31/09:30pm 22.4 23.9 18.8 80 2.3 SW 9 11 5 6 1006.1 1006.0 0.0
31/09:00pm 22.7 24.3 19.1 80 2.3 S 9 13 5 7 1005.5 1005.4 0.0
31/08:30pm 22.8 23.9 18.8 78 2.5 S 11 13 6 7 1005.1 1005.0 0.0
31/08:00pm 23.5 24.8 19.2 77 2.8 SSE 11 19 6 10 1004.5 1004.4 0.0
31/07:30pm 24.0 24.3 18.0 69 3.8 SSE 13 20 7 11 1003.9 1003.8 0.0
31/07:00pm 25.6 24.8 17.0 59 5.4 ENE 17 24 9 13 1003.0 1002.9 0.0
31/06:30pm 26.8 26.7 17.0 55 6.1 NE 13 17 7 9 1002.5 1002.4 0.0
31/06:00pm 27.4 27.8 16.4 51 6.8 E 9 13 5 7 1001.9 1001.8 0.0
31/05:30pm 27.3 26.4 16.9 53 6.5 NE 17 24 9 13 1001.9 1001.8 0.0
31/05:00pm 27.0 25.7 16.9 54 6.3 NE 19 22 10 12 1002.3 1002.2 0.0
31/04:30pm 26.6 26.8 18.5 61 5.2 NNE 15 22 8 12 1002.6 1002.5 0.0
31/04:12pm 22.5 19.0 15.4 64 4.2 NNW 28 46 15 25 1003.9 1003.8 0.0
31/04:03pm 25.2 23.5 14.6 51 6.3 N 17 43 9 23 1003.9 1003.8 0.0
31/04:00pm 27.3 28.2 16.6 52 6.7 NE 7 20 4 11 1003.4 1003.3 0.0
31/03:30pm 29.5 28.0 14.1 39 9.3 S 15 22 8 12 1002.6 1002.5 0.0
31/03:00pm 29.2 27.6 16.0 44 8.2 S 19 26 10 14 1003.0 1002.9 0.0
31/02:30pm 30.7 29.2 16.7 43 8.8 SSE 20 30 11 16 1003.2 1003.1 0.0
31/02:00pm 34.4 30.7 13.8 29 12.6 NW 26 35 14 19 1003.2 1003.1 0.0
31/01:30pm 33.5 31.0 14.0 30 11.9 NNW 20 32 11 17 1004.0 1003.9 0.0
31/01:00pm 32.5 32.9 16.3 37 10.2 W 9 20 5 11 1004.5 1004.4 0.0
31/12:30pm 31.5 31.4 15.9 39 9.7 NNW 11 19 6 10 1005.1 1005.0 0.0
31/12:00pm 31.2 32.8 19.2 48 7.9 WNW 9 17 5 9 1005.7 1005.6 0.0
31/11:30am 29.6 30.7 18.1 50 7.4 NW 9 17 5 9 1006.1 1006.0 0.0
31/11:00am 29.4 29.8 18.2 51 7.2 NW 13 20 7 11 1006.4 1006.3 0.0
31/10:30am 27.9 29.1 18.3 56 6.1 SW 9 15 5 8 1006.8 1006.7 0.0
31/10:00am 27.1 28.6 18.1 58 5.7 N 7 11 4 6 1007.0 1006.9 0.0
31/09:30am 26.7 28.7 18.8 62 5.1 N 6 11 3 6 1007.1 1007.0 0.0
31/09:00am 24.9 25.8 17.6 64 4.6 NW 9 13 5 7 1007.3 1007.2 0.0
31/08:30am 24.0 25.8 18.2 70 3.6 SW 6 9 3 5 1007.6 1007.5 0.0
31/08:00am 22.6 23.8 18.2 76 2.8 SSW 9 11 5 6 1007.6 1007.5 0.0
31/07:30am 21.0 22.2 17.4 80 2.2 SW 7 9 4 5 1007.2 1007.1 0.0
31/07:00am 19.5 20.9 17.3 87 1.3 WSW 6 9 3 5 1007.0 1006.9 0.0
31/06:30am 18.4 19.4 16.4 88 1.2 WNW 6 7 3 4 1006.4 1006.3 0.0
31/06:00am 18.4 20.1 16.2 87 1.3 WNW 2 7 1 4 1006.2 1006.1 0.0
31/05:30am 18.8 19.5 16.2 85 1.6 SW 7 9 4 5 1005.9 1005.8 0.0
31/05:00am 20.1 21.1 16.9 82 1.9 W 7 9 4 5 1005.7 1005.6 0.0
31/04:30am 20.8 21.5 17.0 79 2.3 W 9 11 5 6 1005.4 1005.3 0.0
31/04:00am 21.2 21.1 17.0 77 2.6 NW 13 17 7 9 1005.0 1004.9 0.0
31/03:30am 21.7 21.3 17.1 75 2.8 NNW 15 20 8 11 1004.9 1004.8 0.0
31/03:00am 22.0 21.6 17.2 74 3.0 NNW 15 20 8 11 1005.0 1004.9 0.0
31/02:30am 22.1 21.3 17.2 74 3.0 NNW 17 24 9 13 1005.1 1005.0 0.0
31/02:00am 22.4 21.7 17.3 73 3.2 NNW 17 24 9 13 1005.4 1005.3 0.0
31/01:30am 22.9 22.3 17.6 72 3.3 NNW 17 24 9 13 1005.6 1005.5 0.0
31/01:00am 22.8 22.6 17.5 72 3.3 NNW 15 20 8 11 1005.8 1005.7 0.0
31/12:30am 23.2 22.2 17.6 71 3.5 NNW 19 28 10 15 1006.0 1005.9 0.0
31/12:00am 23.1 23.0 17.8 72 3.3 NNW 15 22 8 12 1006.1 1006.0 0.0
 
Date/Time
EDT
Temp
°C
App
Temp
°C
Dew
Point
Rel
Hum
%
Delta-T
°C
Wind Press
QNH
hPa
Press
MSL
hPa
Rain
since 9 am
mm
Dir
 
Spd
km/h
Gust
km/h
Spd
kts
Gust
kts
30/11:30pm 23.4 22.5 17.8 71 3.5 N 19 26 10 14 1006.3 1006.2 0.0
30/11:00pm 23.6 22.7 17.8 70 3.6 NNW 19 28 10 15 1006.3 1006.2 0.0
30/10:30pm 23.3 24.1 18.2 73 3.2 NNW 11 15 6 8 1006.2 1006.1 0.0
30/10:00pm 23.0 24.1 18.1 74 3.1 N 9 11 5 6 1006.0 1005.9 0.0
30/09:30pm 24.0 24.8 18.2 70 3.6 N 11 17 6 9 1005.7 1005.6 0.0
30/09:00pm 23.5 24.6 17.9 71 3.5 ENE 9 13 5 7 1005.5 1005.4 0.0
30/08:30pm 23.9 24.6 17.9 69 3.8 E 11 15 6 8 1005.2 1005.1 0.0
30/08:00pm 24.4 25.2 18.1 68 4.0 ENE 11 15 6 8 1004.9 1004.8 0.0
30/07:30pm 26.1 27.2 18.0 61 5.1 ENE 9 11 5 6 1004.7 1004.6 0.0
30/07:00pm 27.6 28.1 18.3 57 5.9 NE 13 19 7 10 1004.4 1004.3 0.0
30/06:30pm 28.0 27.4 18.4 56 6.1 ENE 19 26 10 14 1004.0 1003.9 0.0
30/06:00pm 28.8 27.9 18.3 53 6.7 NE 20 26 11 14 1003.8 1003.7 0.0
30/05:30pm 29.8 30.2 16.2 43 8.5 N 9 15 5 8 1003.8 1003.7 0.0
30/05:00pm 30.6 30.2 16.2 41 9.0 N 13 20 7 11 1003.9 1003.8 0.0
30/04:30pm 30.5 29.2 15.8 41 9.1 N 17 26 9 14 1004.2 1004.1 0.0
30/04:00pm 30.6 29.8 16.2 41 9.0 N 15 22 8 12 1004.7 1004.6 0.0
30/03:30pm 29.9 27.7 16.0 43 8.6 N 22 30 12 16 1005.1 1005.0 0.0
30/03:00pm 29.5 28.4 16.3 45 8.2 N 17 24 9 13 1005.5 1005.4 0.0
30/02:30pm 30.1 30.3 15.8 42 8.9 WNW 9 19 5 10 1005.7 1005.6 0.0
30/02:00pm 29.1 29.0 16.0 45 8.1 NNE 11 20 6 11 1006.3 1006.2 0.0
30/01:30pm 29.0 29.4 16.2 46 7.9 N 9 19 5 10 1006.8 1006.7 0.0
30/01:00pm 28.2 28.1 16.1 47 7.5 NNE 11 20 6 11 1007.3 1007.2 0.0
30/12:30pm 27.3 26.5 16.0 50 7.0 NNW 15 22 8 12 1007.9 1007.8 0.0
30/12:00pm 26.9 26.0 15.9 51 6.8 N 15 22 8 12 1008.5 1008.4 0.0
30/11:30am 27.2 28.0 17.4 55 6.2 NNW 9 22 5 12 1008.8 1008.7 0.0
30/11:00am 26.0 26.0 17.1 58 5.6 N 13 19 7 10 1009.0 1008.9 0.0
30/10:30am 25.2 25.2 16.3 57 5.5 NNE 11 17 6 9 1009.3 1009.2 0.0
30/10:00am 24.5 24.8 16.0 59 5.2 N 9 13 5 7 1009.4 1009.3 0.0
30/09:30am 23.4 24.1 15.5 61 4.7 W 6 11 3 6 1009.7 1009.6 0.0
30/09:00am 22.8 23.1 15.9 65 4.2 NW 9 13 5 7 1010.0 1009.9 0.0
30/08:30am 21.4 22.1 16.1 72 3.2 W 7 11 4 6 1010.0 1009.9 0.0
30/08:00am 20.6 21.6 16.8 79 2.3 W 7 9 4 5 1010.0 1009.9 0.0
30/07:30am 19.6 20.9 17.2 86 1.5 W 6 6 3 3 1009.8 1009.7 0.0
30/07:00am 18.0 20.3 16.7 92 0.8 CALM 0 0 0 0 1009.6 1009.5 0.0
30/06:30am 16.7 18.4 15.1 90 0.9 CALM 0 0 0 0 1009.4 1009.3 0.0
30/06:00am 16.9 18.7 15.4 91 0.9 CALM 0 0 0 0 1009.1 1009.0 0.0
30/05:30am 17.4 19.2 15.6 89 1.1 CALM 0 0 0 0 1008.9 1008.8 0.0
30/05:00am 17.6 19.4 15.6 88 1.2 CALM 0 0 0 0 1008.9 1008.8 0.0
30/04:30am 18.2 20.2 16.0 87 1.3 CALM 0 0 0 0 1009.2 1009.1 0.0
30/04:00am 18.1 19.9 15.4 84 1.6 CALM 0 0 0 0 1009.2 1009.1 0.0
30/03:30am 19.1 20.6 15.8 81 2.0 SSW 2 6 1 3 1009.3 1009.2 0.0
30/03:00am 20.0 20.7 16.2 79 2.3 SSW 7 9 4 5 1009.6 1009.5 0.0
30/02:30am 20.0 20.9 16.6 81 2.1 SSW 7 7 4 4 1009.9 1009.8 0.0
30/02:00am 20.3 21.9 16.9 81 2.1 S 4 9 2 5 1010.1 1010.0 0.0
30/01:30am 20.5 22.9 16.9 80 2.2 CALM 0 0 0 0 1010.2 1010.1 0.0
30/01:00am 20.3 21.1 16.3 78 2.4 ESE 7 9 4 5 1010.3 1010.2 0.0
30/12:30am 20.9 21.8 16.1 74 2.9 SSE 6 7 3 4 1010.6 1010.5 0.0
30/12:00am 21.3 22.5 16.9 76 2.7 SSW 6 9 3 5 1010.9 1010.8 0.0
 
Date/Time
EDT
Temp
°C
App
Temp
°C
Dew
Point
Rel
Hum
%
Delta-T
°C
Wind Press
QNH
hPa
Press
MSL
hPa
Rain
since 9 am
mm
Dir
 
Spd
km/h
Gust
km/h
Spd
kts
Gust
kts
29/11:30pm 21.4 23.8 17.0 76 2.7 CALM 0 0 0 0 1011.0 1010.9 0.0
29/11:00pm 21.5 23.8 16.7 74 2.9 CALM 0 0 0 0 1010.9 1010.8 0.0
29/10:30pm 21.3 22.7 17.3 78 2.5 SSE 6 7 3 4 1010.7 1010.6 0.0
29/10:00pm 21.5 22.8 17.1 76 2.7 SSE 6 7 3 4 1010.5 1010.4 0.0
29/09:30pm 21.6 22.9 17.2 76 2.7 ESE 6 7 3 4 1010.4 1010.3 0.0
29/09:00pm 21.7 22.7 16.9 74 2.9 SE 7 9 4 5 1010.1 1010.0 0.0
29/08:30pm 22.1 22.6 16.6 71 3.3 SE 9 13 5 7 1009.9 1009.8 0.0
29/08:00pm 22.1 21.7 16.1 69 3.6 ESE 13 17 7 9 1009.5 1009.4 0.0
29/07:30pm 22.5 21.2 15.8 66 4.0 E 17 22 9 12 1008.9 1008.8 0.0
29/07:00pm 23.2 20.9 15.8 63 4.5 ESE 22 30 12 16 1008.3 1008.2 0.0
29/06:30pm 24.0 21.6 15.5 59 5.1 ESE 22 28 12 15 1007.9 1007.8 0.0
29/06:00pm 25.7 22.9 15.4 53 6.3 ESE 24 32 13 17 1007.4 1007.3 0.0
29/05:30pm 25.9 22.9 14.7 50 6.7 E 24 32 13 17 1007.2 1007.1 0.0
29/05:00pm 26.5 23.3 14.3 47 7.3 E 24 32 13 17 1007.0 1006.9 0.0
29/04:30pm 27.2 24.5 15.6 49 7.1 ESE 24 32 13 17 1007.2 1007.1 0.0
29/04:00pm 27.5 25.7 16.1 49 7.0 E 20 26 11 14 1007.2 1007.1 0.0
29/03:30pm 26.5 24.6 14.3 47 7.3 E 17 24 9 13 1007.2 1007.1 0.0
29/03:00pm 27.1 25.2 13.1 42 8.2 SE 15 20 8 11 1007.5 1007.4 0.0

Other Formats:

Comma delimited format used in spreadsheet applications
http://www.bom.gov.au/fwo/IDN60801/IDN60801.94573.axf

JavaScript Object Notation format (JSON) in row-major order
http://www.bom.gov.au/fwo/IDN60801/IDN60801.94573.json